Time;durP1;ratioP1;P1;durP2;ratioP2;P2;SDS_P1;SDS_P2;PMS_P1;PMS_P2;Temp;Humidity;BMP_temperature;BMP_pressure;BME280_temperature;BME280_humidity;BME280_pressure;Samples;Min_cycle;Max_cycle;Signal;HPM_P1;HPM_P2
2021/03/15 21:11:56;;;;;;;36.00;16.65;;;;;;;5.78;64.42;97335.59;5108375;27;20419;-85
2021/03/15 21:14:22;;;;;;;44.10;18.45;;;;;;;14.40;37.41;97312.69;5083865;28;20097;-85
2021/03/15 21:16:48;;;;;;;65.55;25.85;;;;;;;17.48;27.23;97319.38;5074117;28;20038;-85
2021/03/15 21:19:14;;;;;;;67.38;26.00;;;;;;;19.18;24.68;97319.13;5087922;28;20385;-84
2021/03/15 21:21:40;;;;;;;81.95;26.02;;;;;;;20.41;23.58;97316.31;5089560;28;20032;-83
2021/03/15 21:24:07;;;;;;;61.38;22.75;;;;;;;21.15;21.32;97318.38;5083411;28;20496;-84
2021/03/15 21:26:33;;;;;;;53.88;22.48;;;;;;;21.73;20.01;97313.81;5075784;28;20447;-84
2021/03/15 21:28:59;;;;;;;43.60;19.35;;;;;;;22.01;18.89;97312.31;5085272;28;20036;-85
2021/03/15 21:31:28;;;;;;;45.50;20.98;;;;;;;21.86;18.75;97311.94;5094002;28;20032;-85
2021/03/15 21:33:54;;;;;;;47.28;22.75;;;;;;;21.98;18.82;97314.00;5061016;28;20578;-85
2021/03/15 21:36:20;;;;;;;48.15;19.05;;;;;;;22.36;18.42;97325.38;5078961;28;20033;-84
2021/03/15 21:38:46;;;;;;;39.95;19.67;;;;;;;22.54;18.21;97314.47;5078331;28;20067;-87
2021/03/15 21:41:13;;;;;;;61.10;24.75;;;;;;;22.79;17.61;97316.63;5068771;28;20032;-86
2021/03/15 21:43:39;;;;;;;56.15;24.05;;;;;;;22.94;17.50;97319.81;5078539;28;20103;-86
2021/03/15 21:46:05;;;;;;;60.28;23.70;;;;;;;22.83;17.19;97322.91;5082864;28;20025;-86
2021/03/15 21:48:32;;;;;;;58.17;23.20;;;;;;;22.59;17.54;97319.53;5064027;28;20036;-86
2021/03/15 21:50:58;;;;;;;61.10;25.25;;;;;;;22.37;17.61;97317.78;5088632;28;20035;-85
2021/03/15 21:53:24;;;;;;;62.58;27.33;;;;;;;22.26;17.38;97315.28;5081598;28;20414;-87
2021/03/15 21:55:52;;;;;;;66.03;26.95;;;;;;;22.26;17.42;97317.28;5077600;28;20036;-87
2021/03/15 21:58:19;;;;;;;54.28;24.23;;;;;;;21.93;17.36;97308.16;5073280;28;20040;-86
2021/03/15 22:00:45;;;;;;;62.70;26.52;;;;;;;21.55;17.29;97307.06;5071627;28;20067;-86
2021/03/15 22:03:12;;;;;;;46.80;20.38;;;;;;;21.56;17.80;97312.25;5085327;28;20032;-86
2021/03/15 22:05:39;;;;;;;52.70;23.02;;;;;;;22.06;17.26;97320.19;5055478;28;20067;-87
2021/03/15 22:08:05;;;;;;;55.55;27.42;;;;;;;22.07;16.87;97313.38;5080898;28;20032;-86
2021/03/15 22:10:31;;;;;;;55.10;23.25;;;;;;;22.01;17.51;97312.31;5074345;28;20060;-86
2021/03/15 22:12:57;;;;;;;58.80;26.50;;;;;;;22.29;16.97;97314.38;5079370;28;20035;-86
2021/03/15 22:15:24;;;;;;;56.67;24.27;;;;;;;22.38;17.13;97311.72;5071109;28;20032;-85
2021/03/15 22:17:50;;;;;;;61.58;26.92;;;;;;;22.48;17.01;97310.66;5074057;28;20029;-85
2021/03/15 22:20:16;;;;;;;64.13;29.15;;;;;;;22.65;16.71;97320.63;5079962;28;20040;-84
2021/03/15 22:22:42;;;;;;;80.28;33.03;;;;;;;22.80;16.57;97317.41;5062767;28;20024;-85
2021/03/15 22:25:10;;;;;;;77.97;32.42;;;;;;;23.04;15.96;97318.69;5064316;28;20539;-84
2021/03/15 22:27:37;;;;;;;75.05;30.33;;;;;;;22.95;16.08;97321.34;5063373;28;20442;-85
2021/03/15 22:30:23;;;;;;;86.35;32.60;;;;;;;22.89;16.05;97311.94;5058856;28;20496;-85
2021/03/15 22:32:49;;;;;;;67.53;27.95;;;;;;;22.77;16.09;97305.09;5062151;28;20037;-85
2021/03/15 22:35:15;;;;;;;63.83;27.85;;;;;;;22.72;16.10;97307.63;5066106;28;20032;-85
2021/03/15 22:37:41;;;;;;;67.38;30.42;;;;;;;22.61;16.21;97310.75;5059949;28;20028;-85
2021/03/15 22:40:08;;;;;;;76.75;32.47;;;;;;;21.88;16.76;97308.69;5057353;28;20060;-86
2021/03/15 22:42:34;;;;;;;64.03;28.67;;;;;;;21.40;17.11;97308.66;5056490;28;20029;-85
2021/03/15 22:45:00;;;;;;;76.25;31.50;;;;;;;21.00;17.52;97303.13;5063965;28;20126;-85
2021/03/15 22:47:26;;;;;;;61.88;26.67;;;;;;;21.16;17.47;97305.19;5059434;28;20036;-85
2021/03/15 22:49:52;;;;;;;57.50;24.52;;;;;;;21.75;17.11;97305.00;5057710;28;20033;-86
2021/03/15 22:52:18;;;;;;;61.97;28.35;;;;;;;22.13;16.33;97305.25;5061535;28;20410;-85
2021/03/15 22:54:44;;;;;;;72.65;32.97;;;;;;;22.29;16.26;97303.19;5056521;28;20043;-85
2021/03/15 22:57:11;;;;;;;56.55;26.60;;;;;;;22.40;16.18;97306.50;5064506;28;20036;-85
2021/03/15 22:59:37;;;;;;;72.57;31.70;;;;;;;22.03;16.40;97299.50;5060171;28;20156;-85
2021/03/15 23:02:04;;;;;;;58.78;25.15;;;;;;;21.64;16.90;97307.25;5065777;28;20048;-85
2021/03/15 23:04:30;;;;;;;59.05;26.65;;;;;;;21.59;17.02;97311.34;5067906;28;20048;-85
2021/03/15 23:06:56;;;;;;;64.78;27.30;;;;;;;21.90;16.67;97309.81;5064099;28;20033;-85
2021/03/15 23:09:26;;;;;;;56.58;26.17;;;;;;;22.24;16.54;97316.94;5061069;28;20451;-85
2021/03/15 23:11:53;;;;;;;61.05;26.23;;;;;;;22.23;16.08;97313.34;5042277;28;20053;-86
2021/03/15 23:14:19;;;;;;;60.97;26.85;;;;;;;22.28;16.08;97303.66;5020765;28;20060;-85
2021/03/15 23:16:46;;;;;;;53.97;24.42;;;;;;;22.35;15.68;97307.03;5042676;28;20104;-85
2021/03/15 23:19:14;;;;;;;63.22;26.48;;;;;;;22.44;15.63;97314.78;5046184;28;20037;-84
2021/03/15 23:21:46;;;;;;;65.45;26.20;;;;;;;22.29;15.91;97303.19;5049147;28;20040;-84
2021/03/15 23:24:47;;;;;;;58.67;24.83;;;;;;;21.51;16.54;97315.56;5032022;28;20063;-85
2021/03/15 23:27:15;;;;;;;60.30;27.55;;;;;;;21.66;16.46;97315.97;5025419;28;20064;-85
2021/03/15 23:29:41;;;;;;;50.63;22.48;;;;;;;21.77;16.42;97311.72;5054436;28;20496;-86
2021/03/15 23:32:08;;;;;;;58.83;27.67;;;;;;;21.70;16.10;97316.69;5051596;28;20106;-85
2021/03/15 23:34:34;;;;;;;48.45;21.58;;;;;;;21.80;16.17;97316.44;5052516;28;20021;-86
2021/03/15 23:37:01;;;;;;;54.63;23.58;;;;;;;22.09;15.72;97319.31;5051383;28;20389;-85
2021/03/15 23:39:27;;;;;;;53.50;23.73;;;;;;;22.22;15.50;97322.97;5048344;28;20037;-85
2021/03/15 23:41:53;;;;;;;55.45;24.15;;;;;;;22.37;15.44;97331.75;5054822;28;20048;-85
2021/03/15 23:44:20;;;;;;;55.65;24.08;;;;;;;22.46;15.33;97329.91;5061206;28;20028;-85
2021/03/15 23:46:46;;;;;;;55.03;25.50;;;;;;;22.52;15.29;97335.75;5061313;28;20124;-83
2021/03/15 23:49:12;;;;;;;60.50;27.17;;;;;;;22.43;15.25;97335.59;5053039;28;20088;-83
2021/03/15 23:51:38;;;;;;;53.33;23.42;;;;;;;22.48;15.31;97327.44;5053294;28;20044;-83
2021/03/15 23:54:04;;;;;;;56.30;25.58;;;;;;;22.40;15.73;97328.88;5053580;28;20033;-83
2021/03/15 23:56:31;;;;;;;51.35;22.98;;;;;;;22.39;15.87;97332.09;5061979;28;20107;-83
2021/03/15 23:58:57;;;;;;;52.63;24.77;;;;;;;22.36;15.66;97332.97;5060645;28;20032;-83
